Time,TemperatureF,DewpointF,PressureIn,WindDirection,WindDirectionDegrees,WindSpeedMPH,WindSpeedGustMPH,Humidity,HourlyPrecipIn,Conditions,Clouds,dailyrainin,SoftwareType,DateUTC
2013-01-14 00:00:00,59.0,46.8,29.95,SW,226,2.7,3.6,64,0.00,,---,0.00,VWS V14.01,2013-01-14 05:00:00,
2013-01-14 00:01:00,59.0,46.8,29.95,WSW,243,4.0,4.9,64,0.00,,---,0.00,VWS V14.01,2013-01-14 05:01:00,
2013-01-14 00:03:00,59.0,46.8,29.95,WSW,242,0.0,0.0,64,0.00,,---,0.00,VWS V14.01,2013-01-14 05:03:00,
2013-01-14 00:08:00,58.8,46.7,29.95,SSW,196,0.0,3.1,64,0.00,,---,0.00,VWS V14.01,2013-01-14 05:08:00,
2013-01-14 00:13:00,58.6,46.9,29.98,WSW,244,0.0,0.0,65,0.00,,---,0.00,VWS V14.01,2013-01-14 05:13:00,
2013-01-14 00:18:00,58.5,47.2,29.98,WSW,237,0.0,2.2,66,0.00,,---,0.00,VWS V14.01,2013-01-14 05:18:00,
2013-01-14 00:23:00,58.3,47.0,29.98,WSW,237,0.0,0.0,66,0.00,,---,0.00,VWS V14.01,2013-01-14 05:23:00,
2013-01-14 00:28:00,57.9,47.0,29.98,SW,231,0.0,0.0,67,0.00,,---,0.00,VWS V14.01,2013-01-14 05:28:00,
2013-01-14 00:33:00,57.7,47.7,29.98,ENE,70,2.2,2.7,69,0.00,,---,0.00,VWS V14.01,2013-01-14 05:33:00,
2013-01-14 00:38:00,57.6,48.2,29.98,NNE,21,3.1,3.1,71,0.04,,---,0.04,VWS V14.01,2013-01-14 05:38:00,
2013-01-14 00:44:00,57.6,49.0,29.98,SSW,202,3.6,3.6,73,0.04,,---,0.04,VWS V14.01,2013-01-14 05:44:00,
2013-01-14 00:49:00,57.9,49.0,29.98,SSW,206,3.1,3.6,72,0.04,,---,0.04,VWS V14.01,2013-01-14 05:49:00,
2013-01-14 00:54:00,57.6,48.2,29.98,NW,304,2.7,4.0,71,0.04,,---,0.04,VWS V14.01,2013-01-14 05:54:00,
2013-01-14 00:59:00,57.4,48.1,29.98,SW,233,0.0,0.0,71,0.04,,---,0.04,VWS V14.01,2013-01-14 05:59:00,
2013-01-14 01:04:00,57.2,48.3,29.98,SSE,153,3.6,3.6,72,0.04,,---,0.04,VWS V14.01,2013-01-14 06:04:00,
2013-01-14 01:09:00,57.2,48.6,29.98,WSW,243,2.2,2.2,73,0.04,,---,0.04,VWS V14.01,2013-01-14 06:09:00,
2013-01-14 01:14:00,57.0,48.8,29.98,SW,227,0.0,0.0,74,0.04,,---,0.04,VWS V14.01,2013-01-14 06:14:00,
2013-01-14 01:19:00,56.8,48.7,29.98,SSE,156,3.1,3.1,74,0.04,,---,0.04,VWS V14.01,2013-01-14 06:19:00,
2013-01-14 01:24:00,56.8,49.0,29.98,WSW,249,5.8,5.8,75,0.04,,---,0.04,VWS V14.01,2013-01-14 06:24:00,
2013-01-14 01:29:00,56.8,49.4,29.98,East,83,0.0,3.1,76,0.04,,---,0.04,VWS V14.01,2013-01-14 06:29:00,
2013-01-14 01:34:00,56.8,49.7,29.98,SSW,206,3.6,3.6,77,0.04,,---,0.04,VWS V14.01,2013-01-14 06:34:00,
2013-01-14 01:40:00,57.0,50.6,29.98,SW,228,0.0,2.7,79,0.00,,---,0.04,VWS V14.01,2013-01-14 06:40:00,
2013-01-14 01:45:00,57.2,50.4,29.98,WSW,244,3.6,4.0,78,0.00,,---,0.04,VWS V14.01,2013-01-14 06:45:00,
2013-01-14 01:50:00,57.2,50.4,29.98,East,96,0.0,2.7,78,0.00,,---,0.04,VWS V14.01,2013-01-14 06:50:00,
2013-01-14 01:55:00,57.0,50.6,29.98,WSW,251,4.0,5.8,79,0.00,,---,0.04,VWS V14.01,2013-01-14 06:55:00,
2013-01-14 02:00:00,57.2,50.4,29.98,West,268,0.0,0.0,78,0.00,,---,0.04,VWS V14.01,2013-01-14 07:00:00,
2013-01-14 02:05:00,57.0,50.2,29.98,WSW,244,3.6,4.0,78,0.00,,---,0.04,VWS V14.01,2013-01-14 07:05:00,
2013-01-14 02:10:00,57.0,50.2,29.98,West,269,0.0,0.0,78,0.00,,---,0.04,VWS V14.01,2013-01-14 07:10:00,
2013-01-14 02:15:00,56.7,49.5,29.98,West,270,0.0,0.0,77,0.00,,---,0.04,VWS V14.01,2013-01-14 07:15:00,
2013-01-14 02:20:00,56.5,49.7,29.98,West,277,0.0,0.0,78,0.00,,---,0.04,VWS V14.01,2013-01-14 07:20:00,
2013-01-14 02:25:00,56.3,49.5,29.98,SSE,152,3.6,4.0,78,0.00,,---,0.04,VWS V14.01,2013-01-14 07:25:00,
2013-01-14 02:30:00,56.3,49.9,29.98,SW,236,0.0,0.0,79,0.00,,---,0.04,VWS V14.01,2013-01-14 07:30:00,
2013-01-14 02:35:00,56.3,49.9,29.98,SW,236,0.0,0.0,79,0.00,,---,0.04,VWS V14.01,2013-01-14 07:35:00,
2013-01-14 02:41:00,56.1,50.0,29.98,SW,236,0.0,0.0,80,0.00,,---,0.04,VWS V14.01,2013-01-14 07:41:00,
2013-01-14 02:46:00,55.9,49.9,29.98,SW,234,0.0,0.0,80,0.00,,---,0.04,VWS V14.01,2013-01-14 07:46:00,
2013-01-14 02:51:00,55.9,49.9,29.98,SW,235,0.0,0.0,80,0.00,,---,0.04,VWS V14.01,2013-01-14 07:51:00,
2013-01-14 02:56:00,55.8,50.0,29.98,WSW,240,0.0,0.0,81,0.00,,---,0.04,VWS V14.01,2013-01-14 07:56:00,
2013-01-14 03:01:00,55.6,49.8,29.98,WSW,240,0.0,0.0,81,0.00,,---,0.04,VWS V14.01,2013-01-14 08:01:00,
2013-01-14 03:06:00,55.6,50.2,29.98,West,260,0.0,3.6,82,0.00,,---,0.04,VWS V14.01,2013-01-14 08:06:00,
2013-01-14 03:11:00,55.9,51.2,29.95,WSW,255,4.9,5.8,84,0.04,,---,0.08,VWS V14.01,2013-01-14 08:11:00,
2013-01-14 03:16:00,56.5,52.0,29.95,SSW,200,4.0,4.0,85,0.04,,---,0.08,VWS V14.01,2013-01-14 08:16:00,
2013-01-14 03:21:00,56.1,51.4,29.95,SSE,158,2.2,2.2,84,0.04,,---,0.08,VWS V14.01,2013-01-14 08:21:00,
2013-01-14 03:26:00,56.1,51.4,29.98,SSE,158,0.0,0.0,84,0.04,,---,0.08,VWS V14.01,2013-01-14 08:26:00,
2013-01-14 03:31:00,56.1,51.4,29.98,West,273,3.6,3.6,84,0.04,,---,0.08,VWS V14.01,2013-01-14 08:31:00,
2013-01-14 03:36:00,56.3,51.9,29.98,WNW,287,3.1,3.6,85,0.04,,---,0.08,VWS V14.01,2013-01-14 08:36:00,
2013-01-14 03:41:00,56.1,51.7,29.98,West,270,0.0,0.0,85,0.04,,---,0.08,VWS V14.01,2013-01-14 08:41:00,
2013-01-14 03:46:00,55.9,51.5,29.98,SE,125,0.0,0.0,85,0.04,,---,0.08,VWS V14.01,2013-01-14 08:46:00,
2013-01-14 03:51:00,55.9,51.5,29.98,SE,125,0.0,0.0,85,0.04,,---,0.08,VWS V14.01,2013-01-14 08:51:00,
2013-01-14 03:56:00,55.9,51.5,29.95,West,271,4.0,4.9,85,0.04,,---,0.08,VWS V14.01,2013-01-14 08:56:00,
2013-01-14 04:01:00,56.1,52.0,29.95,East,81,0.0,4.0,86,0.04,,---,0.08,VWS V14.01,2013-01-14 09:01:00,
2013-01-14 04:07:00,56.7,52.8,29.95,West,265,2.7,3.6,87,0.04,,---,0.08,VWS V14.01,2013-01-14 09:07:00,
2013-01-14 04:12:00,56.8,52.7,29.95,SW,224,0.0,2.2,86,0.00,,---,0.08,VWS V14.01,2013-01-14 09:12:00,
2013-01-14 04:17:00,56.7,52.2,29.95,SW,224,0.0,0.0,85,0.00,,---,0.08,VWS V14.01,2013-01-14 09:17:00,
2013-01-14 04:22:00,56.3,51.5,29.95,SW,225,0.0,0.0,84,0.00,,---,0.08,VWS V14.01,2013-01-14 09:22:00,
2013-01-14 04:27:00,55.9,50.9,29.95,SW,225,0.0,0.0,83,0.00,,---,0.08,VWS V14.01,2013-01-14 09:27:00,
2013-01-14 04:32:00,55.4,50.3,29.95,SW,224,0.0,0.0,83,0.00,,---,0.08,VWS V14.01,2013-01-14 09:32:00,
2013-01-14 04:37:00,55.2,50.2,29.95,SW,224,0.0,0.0,83,0.00,,---,0.08,VWS V14.01,2013-01-14 09:37:00,
2013-01-14 04:42:00,55.0,50.0,29.95,SW,224,0.0,0.0,83,0.00,,---,0.08,VWS V14.01,2013-01-14 09:42:00,
2013-01-14 04:47:00,55.0,50.3,29.95,SW,224,0.0,0.0,84,0.00,,---,0.08,VWS V14.01,2013-01-14 09:47:00,
2013-01-14 04:52:00,55.0,50.3,29.95,NE,39,4.0,4.0,84,0.00,,---,0.08,VWS V14.01,2013-01-14 09:52:00,
2013-01-14 04:57:00,55.4,51.0,29.95,SSE,151,3.1,3.1,85,0.00,,---,0.08,VWS V14.01,2013-01-14 09:57:00,
2013-01-14 05:03:00,55.8,52.0,29.95,SW,236,0.0,0.0,87,0.00,,---,0.08,VWS V14.01,2013-01-14 10:03:00,
2013-01-14 05:08:00,56.1,52.3,29.95,SW,236,0.0,0.0,87,0.00,,---,0.08,VWS V14.01,2013-01-14 10:08:00,
2013-01-14 05:13:00,56.3,52.5,29.95,WSW,237,0.0,0.0,87,0.00,,---,0.08,VWS V14.01,2013-01-14 10:13:00,
2013-01-14 05:18:00,56.3,52.5,29.95,West,272,2.2,2.2,87,0.00,,---,0.08,VWS V14.01,2013-01-14 10:18:00,
2013-01-14 05:23:00,56.7,52.8,29.95,West,260,0.0,0.0,87,0.00,,---,0.08,VWS V14.01,2013-01-14 10:23:00,
2013-01-14 05:28:00,56.8,52.7,29.95,SSW,200,2.7,3.1,86,0.00,,---,0.08,VWS V14.01,2013-01-14 10:28:00,
2013-01-14 05:33:00,56.8,52.4,29.95,SSW,207,0.0,0.0,85,0.00,,---,0.08,VWS V14.01,2013-01-14 10:33:00,
2013-01-14 05:38:00,56.7,51.9,29.95,SSW,207,0.0,0.0,84,0.00,,---,0.08,VWS V14.01,2013-01-14 10:38:00,
2013-01-14 05:43:00,56.5,51.7,29.95,SSW,207,0.0,0.0,84,0.00,,---,0.08,VWS V14.01,2013-01-14 10:43:00,
2013-01-14 05:49:00,56.1,51.4,29.95,SSW,207,0.0,0.0,84,0.00,,---,0.08,VWS V14.01,2013-01-14 10:49:00,
2013-01-14 05:54:00,55.9,50.9,29.95,SSW,207,0.0,0.0,83,0.00,,---,0.08,VWS V14.01,2013-01-14 10:54:00,
2013-01-14 05:59:00,55.9,51.2,29.98,SSW,211,0.0,0.0,84,0.00,,---,0.08,VWS V14.01,2013-01-14 10:59:00,
2013-01-14 06:04:00,55.9,51.2,29.98,SSW,210,0.0,0.0,84,0.00,,---,0.08,VWS V14.01,2013-01-14 11:04:00,
2013-01-14 06:09:00,55.9,51.2,29.98,SSW,210,0.0,0.0,84,0.00,,---,0.08,VWS V14.01,2013-01-14 11:09:00,
2013-01-14 06:14:00,55.8,51.0,29.98,SSW,210,0.0,0.0,84,0.00,,---,0.08,VWS V14.01,2013-01-14 11:14:00,
2013-01-14 06:19:00,55.8,51.0,29.98,SSW,205,0.0,2.7,84,0.00,,---,0.08,VWS V14.01,2013-01-14 11:19:00,
2013-01-14 06:24:00,55.8,51.3,29.98,SSE,154,0.0,0.0,85,0.00,,---,0.08,VWS V14.01,2013-01-14 11:24:00,
2013-01-14 06:29:00,55.8,51.3,29.98,SSE,154,0.0,0.0,85,0.00,,---,0.08,VWS V14.01,2013-01-14 11:29:00,
2013-01-14 06:34:00,55.8,51.3,29.98,SSE,154,0.0,0.0,85,0.00,,---,0.08,VWS V14.01,2013-01-14 11:34:00,
2013-01-14 06:39:00,55.6,51.2,29.98,SSE,152,0.0,0.0,85,0.00,,---,0.08,VWS V14.01,2013-01-14 11:39:00,
2013-01-14 06:44:00,55.4,51.3,29.98,SSE,152,0.0,0.0,86,0.00,,---,0.08,VWS V14.01,2013-01-14 11:44:00,
2013-01-14 06:49:00,54.3,49.3,29.98,East,85,5.8,5.8,83,0.00,,---,0.08,VWS V14.01,2013-01-14 11:49:00,
2013-01-14 06:54:00,53.4,45.7,30.01,East,84,3.6,4.0,75,0.00,,---,0.08,VWS V14.01,2013-01-14 11:54:00,
2013-01-14 06:59:00,52.7,44.7,30.01,East,99,3.6,5.8,74,0.00,,---,0.08,VWS V14.01,2013-01-14 11:59:00,
2013-01-14 07:04:00,52.3,44.3,30.01,East,88,0.0,0.0,74,0.00,,---,0.08,VWS V14.01,2013-01-14 12:04:00,
2013-01-14 07:10:00,51.6,43.3,30.01,ENE,73,3.6,3.6,73,0.00,,---,0.08,VWS V14.01,2013-01-14 12:10:00,
2013-01-14 07:15:00,51.4,42.7,30.01,ENE,60,0.0,0.0,72,0.00,,---,0.08,VWS V14.01,2013-01-14 12:15:00,
2013-01-14 07:20:00,51.1,42.7,30.01,ENE,60,0.0,0.0,73,0.00,,---,0.08,VWS V14.01,2013-01-14 12:20:00,
2013-01-14 07:25:00,50.9,42.9,30.03,ENE,60,0.0,0.0,74,0.00,,---,0.08,VWS V14.01,2013-01-14 12:25:00,
2013-01-14 07:30:00,50.5,42.9,30.03,ENE,60,3.1,3.1,75,0.00,,---,0.08,VWS V14.01,2013-01-14 12:30:00,
2013-01-14 07:35:00,50.4,42.8,30.03,NE,55,2.2,3.1,75,0.00,,---,0.08,VWS V14.01,2013-01-14 12:35:00,
2013-01-14 07:40:00,50.4,41.7,30.03,ESE,109,0.0,0.0,72,0.00,,---,0.08,VWS V14.01,2013-01-14 12:40:00,
2013-01-14 07:45:00,50.5,40.8,30.03,East,88,2.7,3.1,69,0.00,,---,0.08,VWS V14.01,2013-01-14 12:45:00,
2013-01-14 07:50:00,50.7,40.6,30.03,ENE,74,0.0,0.0,68,0.00,,---,0.08,VWS V14.01,2013-01-14 12:50:00,
2013-01-14 07:55:00,50.4,40.6,30.03,ENE,74,0.0,0.0,69,0.00,,---,0.08,VWS V14.01,2013-01-14 12:55:00,
2013-01-14 08:00:00,50.2,40.8,30.03,ENE,74,0.0,0.0,70,0.00,,---,0.08,VWS V14.01,2013-01-14 13:00:00,
2013-01-14 08:05:00,50.0,41.0,30.03,ENE,74,0.0,0.0,71,0.00,,---,0.08,VWS V14.01,2013-01-14 13:05:00,
2013-01-14 08:11:00,49.8,41.2,30.03,ENE,74,0.0,0.0,72,0.00,,---,0.08,VWS V14.01,2013-01-14 13:11:00,
2013-01-14 08:16:00,49.6,41.3,30.03,ENE,74,0.0,0.0,73,0.00,,---,0.08,VWS V14.01,2013-01-14 13:16:00,
2013-01-14 08:21:00,49.6,41.7,30.03,ENE,74,0.0,0.0,74,0.00,,---,0.08,VWS V14.01,2013-01-14 13:21:00,
2013-01-14 08:26:00,49.6,41.7,30.06,ENE,74,0.0,0.0,74,0.00,,---,0.08,VWS V14.01,2013-01-14 13:26:00,
2013-01-14 08:31:00,49.6,42.0,30.06,ENE,74,0.0,0.0,75,0.00,,---,0.08,VWS V14.01,2013-01-14 13:31:00,
2013-01-14 08:36:00,49.6,42.0,30.06,ENE,74,0.0,0.0,75,0.00,,---,0.08,VWS V14.01,2013-01-14 13:36:00,
2013-01-14 08:41:00,49.5,41.9,30.06,ENE,74,0.0,0.0,75,0.00,,---,0.08,VWS V14.01,2013-01-14 13:41:00,
2013-01-14 08:46:00,49.5,41.5,30.06,ENE,74,0.0,0.0,74,0.00,,---,0.08,VWS V14.01,2013-01-14 13:46:00,
2013-01-14 08:51:00,49.3,41.4,30.06,ENE,74,0.0,0.0,74,0.00,,---,0.08,VWS V14.01,2013-01-14 13:51:00,
2013-01-14 08:56:00,49.3,41.0,30.06,ENE,74,0.0,0.0,73,0.00,,---,0.08,VWS V14.01,2013-01-14 13:56:00,
2013-01-14 09:01:00,49.1,40.8,30.06,ENE,74,0.0,0.0,73,0.00,,---,0.08,VWS V14.01,2013-01-14 14:01:00,
2013-01-14 09:06:00,49.1,40.8,30.06,ENE,76,0.0,0.0,73,0.00,,---,0.08,VWS V14.01,2013-01-14 14:06:00,
2013-01-14 09:11:00,49.1,40.8,30.09,ENE,76,0.0,0.0,73,0.00,,---,0.08,VWS V14.01,2013-01-14 14:11:00,
2013-01-14 09:16:00,49.1,40.5,30.09,ENE,76,0.0,0.0,72,0.00,,---,0.08,VWS V14.01,2013-01-14 14:16:00,
2013-01-14 09:21:00,49.1,40.5,30.09,ENE,76,0.0,0.0,72,0.00,,---,0.08,VWS V14.01,2013-01-14 14:21:00,
2013-01-14 09:27:00,48.9,39.9,30.06,ENE,76,0.0,0.0,71,0.00,,---,0.08,VWS V14.01,2013-01-14 14:27:00,
2013-01-14 09:32:00,48.9,39.2,30.06,ENE,76,0.0,0.0,69,0.00,,---,0.08,VWS V14.01,2013-01-14 14:32:00,
2013-01-14 09:37:00,48.9,38.8,30.06,ENE,76,0.0,0.0,68,0.00,,---,0.08,VWS V14.01,2013-01-14 14:37:00,
2013-01-14 09:42:00,48.9,38.5,30.09,ENE,76,0.0,0.0,67,0.00,,---,0.08,VWS V14.01,2013-01-14 14:42:00,
2013-01-14 09:47:00,48.7,36.7,30.09,SSW,195,2.7,2.7,63,0.00,,---,0.08,VWS V14.01,2013-01-14 14:47:00,
2013-01-14 09:52:00,48.7,36.3,30.09,SSW,197,0.0,0.0,62,0.00,,---,0.08,VWS V14.01,2013-01-14 14:52:00,
2013-01-14 09:57:00,48.7,35.5,30.09,SSW,213,0.0,0.0,60,0.00,,---,0.08,VWS V14.01,2013-01-14 14:57:00,
2013-01-14 10:02:00,48.7,35.9,30.09,SE,131,0.0,2.7,61,0.00,,---,0.08,VWS V14.01,2013-01-14 15:02:00,
2013-01-14 10:07:00,48.7,36.3,30.09,SSW,199,3.1,3.6,62,0.00,,---,0.08,VWS V14.01,2013-01-14 15:07:00,
2013-01-14 10:12:00,48.7,35.5,30.09,SSW,192,2.7,2.7,60,0.00,,---,0.08,VWS V14.01,2013-01-14 15:12:00,
2013-01-14 10:17:00,48.6,35.3,30.09,SSW,193,0.0,0.0,60,0.00,,---,0.08,VWS V14.01,2013-01-14 15:17:00,
2013-01-14 10:22:00,48.6,35.3,30.09,SSW,193,0.0,0.0,60,0.00,,---,0.08,VWS V14.01,2013-01-14 15:22:00,
2013-01-14 10:27:00,48.6,35.3,30.09,East,87,0.0,0.0,60,0.00,,---,0.08,VWS V14.01,2013-01-14 15:27:00,
2013-01-14 10:32:00,48.6,34.9,30.09,East,87,0.0,0.0,59,0.00,,---,0.08,VWS V14.01,2013-01-14 15:32:00,
2013-01-14 10:37:00,48.6,35.3,30.09,East,87,0.0,0.0,60,0.00,,---,0.08,VWS V14.01,2013-01-14 15:37:00,
2013-01-14 10:42:00,48.6,34.5,30.09,SW,222,0.0,0.0,58,0.00,,---,0.08,VWS V14.01,2013-01-14 15:42:00,
2013-01-14 10:48:00,48.7,34.6,30.09,SW,222,0.0,0.0,58,0.00,,---,0.08,VWS V14.01,2013-01-14 15:48:00,
2013-01-14 10:53:00,48.7,34.6,30.09,SW,222,0.0,0.0,58,0.00,,---,0.08,VWS V14.01,2013-01-14 15:53:00,
2013-01-14 10:58:00,48.7,34.6,30.09,SW,223,0.0,0.0,58,0.00,,---,0.08,VWS V14.01,2013-01-14 15:58:00,
2013-01-14 11:03:00,48.7,34.6,30.09,SSW,193,0.0,0.0,58,0.00,,---,0.08,VWS V14.01,2013-01-14 16:03:00,
2013-01-14 11:08:00,48.7,34.6,30.09,SSW,203,0.0,0.0,58,0.00,,---,0.08,VWS V14.01,2013-01-14 16:08:00,
2013-01-14 11:13:00,48.7,34.6,30.09,SW,219,0.0,2.7,58,0.00,,---,0.08,VWS V14.01,2013-01-14 16:13:00,
2013-01-14 11:18:00,48.7,34.6,30.09,SW,218,0.0,2.2,58,0.00,,---,0.08,VWS V14.01,2013-01-14 16:18:00,
2013-01-14 11:23:00,48.7,34.6,30.09,SW,224,0.0,0.0,58,0.00,,---,0.08,VWS V14.01,2013-01-14 16:23:00,
2013-01-14 11:28:00,48.7,33.3,30.09,SSW,207,3.1,3.1,55,0.00,,---,0.08,VWS V14.01,2013-01-14 16:28:00,
2013-01-14 11:33:00,48.7,33.3,30.09,SSW,212,0.0,3.1,55,0.00,,---,0.08,VWS V14.01,2013-01-14 16:33:00,
2013-01-14 11:38:00,48.7,32.8,30.09,WSW,237,2.7,2.7,54,0.00,,---,0.08,VWS V14.01,2013-01-14 16:38:00,
2013-01-14 11:43:00,48.9,33.5,30.06,SW,234,2.2,2.7,55,0.00,,---,0.08,VWS V14.01,2013-01-14 16:43:00,
2013-01-14 11:48:00,48.9,33.5,30.06,SW,234,0.0,0.0,55,0.00,,---,0.08,VWS V14.01,2013-01-14 16:48:00,
2013-01-14 11:53:00,48.9,33.5,30.06,SW,234,0.0,0.0,55,0.00,,---,0.08,VWS V14.01,2013-01-14 16:53:00,
2013-01-14 11:58:00,49.1,33.2,30.06,SW,230,2.2,2.7,54,0.00,,---,0.08,VWS V14.01,2013-01-14 16:58:00,
2013-01-14 12:03:00,49.1,33.2,30.06,SW,223,0.0,2.7,54,0.00,,---,0.08,VWS V14.01,2013-01-14 17:03:00,
2013-01-14 12:09:00,49.1,33.2,30.06,SW,219,2.2,2.7,54,0.00,,---,0.08,VWS V14.01,2013-01-14 17:09:00,
2013-01-14 12:14:00,49.1,32.2,30.06,SW,221,2.2,2.7,52,0.00,,---,0.08,VWS V14.01,2013-01-14 17:14:00,
2013-01-14 12:19:00,49.3,32.9,30.06,SW,221,0.0,0.0,53,0.00,,---,0.08,VWS V14.01,2013-01-14 17:19:00,
2013-01-14 12:24:00,49.5,33.1,30.06,SW,221,0.0,0.0,53,0.00,,---,0.08,VWS V14.01,2013-01-14 17:24:00,
2013-01-14 12:29:00,49.5,32.6,30.06,SSW,213,2.7,2.7,52,0.00,,---,0.08,VWS V14.01,2013-01-14 17:29:00,
2013-01-14 12:34:00,49.5,32.6,30.06,South,181,0.0,2.7,52,0.00,,---,0.08,VWS V14.01,2013-01-14 17:34:00,
2013-01-14 12:39:00,49.8,33.4,30.06,South,179,0.0,2.7,53,0.00,,---,0.08,VWS V14.01,2013-01-14 17:39:00,
2013-01-14 12:44:00,49.8,32.9,30.06,SSW,207,2.7,2.7,52,0.00,,---,0.08,VWS V14.01,2013-01-14 17:44:00,
2013-01-14 12:49:00,49.8,32.4,30.06,East,87,0.0,0.0,51,0.00,,---,0.08,VWS V14.01,2013-01-14 17:49:00,
2013-01-14 12:54:00,49.8,32.4,30.06,SW,214,0.0,4.0,51,0.00,,---,0.08,VWS V14.01,2013-01-14 17:54:00,
2013-01-14 12:59:00,50.0,32.6,30.06,SSW,196,3.1,3.1,51,0.00,,---,0.08,VWS V14.01,2013-01-14 17:59:00,
2013-01-14 13:04:00,50.0,32.1,30.06,South,191,0.0,0.0,50,0.00,,---,0.08,VWS V14.01,2013-01-14 18:04:00,
2013-01-14 13:09:00,50.0,32.6,30.06,SSE,147,2.7,3.1,51,0.00,,---,0.08,VWS V14.01,2013-01-14 18:09:00,
2013-01-14 13:14:00,50.0,32.1,30.03,SSE,152,0.0,0.0,50,0.00,,---,0.08,VWS V14.01,2013-01-14 18:14:00,
2013-01-14 13:19:00,50.0,32.1,30.03,SSE,167,0.0,0.0,50,0.00,,---,0.08,VWS V14.01,2013-01-14 18:19:00,
2013-01-14 13:25:00,50.0,31.6,30.03,South,171,0.0,0.0,49,0.00,,---,0.08,VWS V14.01,2013-01-14 18:25:00,
2013-01-14 13:30:00,50.0,31.6,30.03,South,172,0.0,0.0,49,0.00,,---,0.08,VWS V14.01,2013-01-14 18:30:00,
2013-01-14 13:35:00,50.0,32.1,30.03,NNE,21,0.0,0.0,50,0.00,,---,0.08,VWS V14.01,2013-01-14 18:35:00,
2013-01-14 13:40:00,50.2,32.3,30.03,NE,38,0.0,0.0,50,0.00,,---,0.08,VWS V14.01,2013-01-14 18:40:00,
2013-01-14 13:45:00,50.2,32.3,30.03,NE,38,0.0,0.0,50,0.00,,---,0.08,VWS V14.01,2013-01-14 18:45:00,
2013-01-14 13:50:00,50.2,31.8,30.03,NE,51,2.2,2.7,49,0.00,,---,0.08,VWS V14.01,2013-01-14 18:50:00,
2013-01-14 13:55:00,50.2,31.8,30.03,NNE,25,0.0,0.0,49,0.00,,---,0.08,VWS V14.01,2013-01-14 18:55:00,
2013-01-14 14:00:00,50.2,31.8,30.03,South,182,4.0,4.0,49,0.00,,---,0.08,VWS V14.01,2013-01-14 19:00:00,
2013-01-14 14:05:00,50.2,31.8,30.03,SW,217,2.7,3.1,49,0.00,,---,0.08,VWS V14.01,2013-01-14 19:05:00,
2013-01-14 14:10:00,50.2,31.8,30.03,SW,217,0.0,0.0,49,0.00,,---,0.08,VWS V14.01,2013-01-14 19:10:00,
2013-01-14 14:15:00,50.2,32.3,30.03,SW,217,0.0,0.0,50,0.00,,---,0.08,VWS V14.01,2013-01-14 19:15:00,
2013-01-14 14:20:00,50.4,32.4,30.03,SW,217,0.0,0.0,50,0.00,,---,0.08,VWS V14.01,2013-01-14 19:20:00,
2013-01-14 14:25:00,50.4,31.9,30.03,SW,215,0.0,0.0,49,0.00,,---,0.08,VWS V14.01,2013-01-14 19:25:00,
2013-01-14 14:30:00,50.2,32.3,30.03,SW,215,0.0,0.0,50,0.00,,---,0.08,VWS V14.01,2013-01-14 19:30:00,
2013-01-14 14:35:00,50.4,32.4,30.03,SSW,210,0.0,0.0,50,0.00,,---,0.08,VWS V14.01,2013-01-14 19:35:00,
2013-01-14 14:40:00,50.4,32.4,30.03,SSE,166,0.0,0.0,50,0.00,,---,0.08,VWS V14.01,2013-01-14 19:40:00,
2013-01-14 14:45:00,50.4,32.4,30.03,SSE,166,0.0,0.0,50,0.00,,---,0.08,VWS V14.01,2013-01-14 19:45:00,
2013-01-14 14:50:00,50.4,31.9,30.03,SSW,196,0.0,0.0,49,0.00,,---,0.08,VWS V14.01,2013-01-14 19:50:00,
2013-01-14 14:56:00,50.4,31.9,30.03,SSW,196,0.0,0.0,49,0.00,,---,0.08,VWS V14.01,2013-01-14 19:56:00,
2013-01-14 15:01:00,50.2,31.8,30.03,SSW,195,0.0,0.0,49,0.00,,---,0.08,VWS V14.01,2013-01-14 20:01:00,
2013-01-14 15:06:00,50.2,31.8,30.03,SSW,196,0.0,0.0,49,0.00,,---,0.08,VWS V14.01,2013-01-14 20:06:00,
2013-01-14 15:11:00,50.2,31.8,30.03,SSW,196,0.0,0.0,49,0.00,,---,0.08,VWS V14.01,2013-01-14 20:11:00,
2013-01-14 15:16:00,50.2,31.8,30.03,SSW,196,0.0,0.0,49,0.00,,---,0.08,VWS V14.01,2013-01-14 20:16:00,
2013-01-14 15:21:00,50.2,32.3,30.03,East,87,0.0,2.7,50,0.00,,---,0.08,VWS V14.01,2013-01-14 20:21:00,
2013-01-14 15:26:00,50.2,32.3,30.03,East,87,0.0,0.0,50,0.00,,---,0.08,VWS V14.01,2013-01-14 20:26:00,
2013-01-14 15:31:00,50.2,32.3,30.03,East,86,0.0,0.0,50,0.00,,---,0.08,VWS V14.01,2013-01-14 20:31:00,
2013-01-14 15:36:00,50.2,32.3,30.03,East,86,0.0,0.0,50,0.00,,---,0.08,VWS V14.01,2013-01-14 20:36:00,
2013-01-14 15:41:00,50.2,32.8,30.01,North,6,3.6,3.6,51,0.00,,---,0.08,VWS V14.01,2013-01-14 20:41:00,
2013-01-14 15:46:00,50.0,32.6,30.01,SE,133,3.1,4.0,51,0.00,,---,0.08,VWS V14.01,2013-01-14 20:46:00,
2013-01-14 15:51:00,50.0,32.6,30.01,SE,140,0.0,0.0,51,0.00,,---,0.08,VWS V14.01,2013-01-14 20:51:00,
2013-01-14 15:56:00,50.0,33.1,30.03,West,276,0.0,0.0,52,0.00,,---,0.08,VWS V14.01,2013-01-14 20:56:00,
2013-01-14 16:01:00,50.0,33.1,30.03,West,276,0.0,0.0,52,0.00,,---,0.08,VWS V14.01,2013-01-14 21:01:00,
2013-01-14 16:06:00,50.0,33.1,30.03,SW,216,5.8,5.8,52,0.00,,---,0.08,VWS V14.01,2013-01-14 21:06:00,
2013-01-14 16:11:00,50.0,32.6,30.03,East,97,0.0,3.6,51,0.00,,---,0.08,VWS V14.01,2013-01-14 21:11:00,
2013-01-14 16:16:00,50.0,33.1,30.03,NNW,327,3.1,6.3,52,0.00,,---,0.08,VWS V14.01,2013-01-14 21:16:00,
2013-01-14 16:22:00,50.0,33.1,30.03,SW,234,3.1,6.3,52,0.00,,---,0.08,VWS V14.01,2013-01-14 21:22:00,
2013-01-14 16:27:00,50.2,33.2,30.03,ESE,107,2.7,3.1,52,0.00,,---,0.08,VWS V14.01,2013-01-14 21:27:00,
2013-01-14 16:32:00,50.4,33.4,30.03,ENE,70,0.0,0.0,52,0.00,,---,0.08,VWS V14.01,2013-01-14 21:32:00,
2013-01-14 16:37:00,50.4,33.4,30.03,ENE,70,0.0,0.0,52,0.00,,---,0.08,VWS V14.01,2013-01-14 21:37:00,
2013-01-14 16:42:00,50.2,33.2,30.03,East,84,2.7,4.0,52,0.00,,---,0.08,VWS V14.01,2013-01-14 21:42:00,
2013-01-14 16:47:00,50.0,33.1,30.03,North,0,0.0,0.0,52,0.00,,---,0.08,VWS V14.01,2013-01-14 21:47:00,
2013-01-14 16:52:00,49.8,33.4,30.03,North,0,0.0,0.0,53,0.00,,---,0.08,VWS V14.01,2013-01-14 21:52:00,
2013-01-14 16:57:00,49.6,33.7,30.06,North,0,0.0,0.0,54,0.00,,---,0.08,VWS V14.01,2013-01-14 21:57:00,
2013-01-14 17:02:00,49.6,34.2,30.06,North,0,0.0,0.0,55,0.00,,---,0.08,VWS V14.01,2013-01-14 22:02:00,
2013-01-14 17:07:00,49.5,34.0,30.06,North,0,0.0,0.0,55,0.00,,---,0.08,VWS V14.01,2013-01-14 22:07:00,
2013-01-14 17:12:00,49.5,34.0,30.06,North,0,0.0,0.0,55,0.00,,---,0.08,VWS V14.01,2013-01-14 22:12:00,
2013-01-14 17:17:00,49.5,34.4,30.06,North,0,0.0,0.0,56,0.00,,---,0.08,VWS V14.01,2013-01-14 22:17:00,
2013-01-14 17:22:00,49.3,34.7,30.06,North,0,0.0,0.0,57,0.00,,---,0.08,VWS V14.01,2013-01-14 22:22:00,
2013-01-14 17:27:00,49.3,35.1,30.06,North,0,0.0,0.0,58,0.00,,---,0.08,VWS V14.01,2013-01-14 22:27:00,
2013-01-14 17:32:00,49.3,35.1,30.06,North,0,0.0,0.0,58,0.00,,---,0.08,VWS V14.01,2013-01-14 22:32:00,
2013-01-14 17:37:00,49.3,35.6,30.06,North,0,0.0,0.0,59,0.00,,---,0.08,VWS V14.01,2013-01-14 22:37:00,
2013-01-14 17:42:00,49.1,35.8,30.06,North,0,0.0,0.0,60,0.00,,---,0.08,VWS V14.01,2013-01-14 22:42:00,
2013-01-14 17:47:00,49.1,36.2,30.06,North,0,0.0,0.0,61,0.00,,---,0.08,VWS V14.01,2013-01-14 22:47:00,
2013-01-14 17:52:00,49.1,36.2,30.06,North,0,0.0,0.0,61,0.00,,---,0.08,VWS V14.01,2013-01-14 22:52:00,
2013-01-14 17:57:00,48.9,36.5,30.06,North,0,0.0,0.0,62,0.00,,---,0.08,VWS V14.01,2013-01-14 22:57:00,
2013-01-14 18:02:00,48.9,36.1,30.06,North,353,0.0,0.0,61,0.00,,---,0.08,VWS V14.01,2013-01-14 23:02:00,
2013-01-14 18:07:00,49.1,36.2,30.06,North,353,0.0,0.0,61,0.00,,---,0.08,VWS V14.01,2013-01-14 23:07:00,
2013-01-14 18:12:00,48.9,36.1,30.09,North,353,0.0,0.0,61,0.00,,---,0.08,VWS V14.01,2013-01-14 23:12:00,
2013-01-14 18:17:00,48.7,36.3,30.09,North,353,0.0,0.0,62,0.00,,---,0.08,VWS V14.01,2013-01-14 23:17:00,
2013-01-14 18:22:00,48.6,36.5,30.09,North,353,0.0,0.0,63,0.00,,---,0.08,VWS V14.01,2013-01-14 23:22:00,
2013-01-14 18:27:00,48.2,37.0,30.09,North,353,0.0,0.0,65,0.00,,---,0.08,VWS V14.01,2013-01-14 23:27:00,
2013-01-14 18:32:00,48.0,37.6,30.09,North,353,0.0,0.0,67,0.00,,---,0.08,VWS V14.01,2013-01-14 23:32:00,
2013-01-14 18:37:00,47.7,37.3,30.09,North,353,0.0,0.0,67,0.00,,---,0.08,VWS V14.01,2013-01-14 23:37:00,
2013-01-14 18:43:00,47.5,37.8,30.09,North,353,0.0,0.0,69,0.00,,---,0.08,VWS V14.01,2013-01-14 23:43:00,
2013-01-14 18:48:00,47.3,38.0,30.09,North,353,0.0,0.0,70,0.00,,---,0.08,VWS V14.01,2013-01-14 23:48:00,
2013-01-14 18:53:00,47.3,38.7,30.09,North,353,0.0,0.0,72,0.00,,---,0.08,VWS V14.01,2013-01-14 23:53:00,
2013-01-14 18:58:00,47.1,38.9,30.09,North,353,0.0,0.0,73,0.00,,---,0.08,VWS V14.01,2013-01-14 23:58:00,
2013-01-14 19:03:00,47.1,38.9,30.09,North,353,0.0,0.0,73,0.04,,---,0.12,VWS V14.01,2013-01-15 00:03:00,
2013-01-14 19:08:00,46.9,39.1,30.09,North,353,0.0,0.0,74,0.04,,---,0.12,VWS V14.01,2013-01-15 00:08:00,
2013-01-14 19:13:00,46.9,39.1,30.12,North,353,0.0,0.0,74,0.04,,---,0.12,VWS V14.01,2013-01-15 00:13:00,
2013-01-14 19:18:00,46.8,39.3,30.12,North,353,0.0,0.0,75,0.04,,---,0.12,VWS V14.01,2013-01-15 00:18:00,
2013-01-14 19:23:00,46.8,39.3,30.12,North,353,0.0,0.0,75,0.04,,---,0.12,VWS V14.01,2013-01-15 00:23:00,
2013-01-14 19:28:00,46.8,39.6,30.12,North,353,0.0,0.0,76,0.04,,---,0.12,VWS V14.01,2013-01-15 00:28:00,
2013-01-14 19:33:00,46.8,39.6,30.12,North,353,0.0,0.0,76,0.04,,---,0.12,VWS V14.01,2013-01-15 00:33:00,
2013-01-14 19:38:00,46.8,39.9,30.12,North,353,0.0,0.0,77,0.04,,---,0.12,VWS V14.01,2013-01-15 00:38:00,
2013-01-14 19:43:00,46.6,39.8,30.09,North,353,0.0,0.0,77,0.04,,---,0.12,VWS V14.01,2013-01-15 00:43:00,
2013-01-14 19:48:00,46.6,40.1,30.09,North,353,0.0,0.0,78,0.04,,---,0.12,VWS V14.01,2013-01-15 00:48:00,
2013-01-14 19:53:00,46.6,40.4,30.09,North,0,0.0,0.0,79,0.04,,---,0.12,VWS V14.01,2013-01-15 00:53:00,
2013-01-14 19:58:00,46.4,40.2,30.09,North,0,0.0,0.0,79,0.04,,---,0.12,VWS V14.01,2013-01-15 00:58:00,
2013-01-14 20:04:00,46.4,40.6,30.09,North,0,0.0,0.0,80,0.00,,---,0.12,VWS V14.01,2013-01-15 01:04:00,
2013-01-14 20:09:00,46.4,40.6,30.09,North,0,0.0,0.0,80,0.04,,---,0.16,VWS V14.01,2013-01-15 01:09:00,
2013-01-14 20:14:00,46.4,40.6,30.09,North,0,0.0,0.0,80,0.04,,---,0.16,VWS V14.01,2013-01-15 01:14:00,
2013-01-14 20:19:00,46.4,40.6,30.09,North,0,0.0,0.0,80,0.04,,---,0.16,VWS V14.01,2013-01-15 01:19:00,
2013-01-14 20:24:00,46.2,40.4,30.09,North,0,0.0,0.0,80,0.04,,---,0.16,VWS V14.01,2013-01-15 01:24:00,
2013-01-14 20:29:00,46.2,40.4,30.09,North,0,0.0,0.0,80,0.04,,---,0.16,VWS V14.01,2013-01-15 01:29:00,
2013-01-14 20:34:00,46.0,40.2,30.09,North,0,0.0,0.0,80,0.04,,---,0.16,VWS V14.01,2013-01-15 01:34:00,
2013-01-14 20:39:00,45.9,40.0,30.09,North,0,0.0,0.0,80,0.04,,---,0.16,VWS V14.01,2013-01-15 01:39:00,
2013-01-14 20:44:00,45.7,39.9,30.09,North,0,0.0,0.0,80,0.04,,---,0.16,VWS V14.01,2013-01-15 01:44:00,
2013-01-14 20:49:00,45.3,39.5,30.09,North,0,0.0,0.0,80,0.04,,---,0.16,VWS V14.01,2013-01-15 01:49:00,
2013-01-14 20:54:00,45.1,39.0,30.09,North,0,0.0,0.0,79,0.04,,---,0.16,VWS V14.01,2013-01-15 01:54:00,
2013-01-14 20:59:00,44.8,38.7,30.12,North,0,0.0,0.0,79,0.04,,---,0.16,VWS V14.01,2013-01-15 01:59:00,
2013-01-14 21:04:00,44.6,38.5,30.12,North,0,0.0,0.0,79,0.00,,---,0.16,VWS V14.01,2013-01-15 02:04:00,
2013-01-14 21:09:00,44.2,38.5,30.12,North,0,0.0,0.0,80,0.04,,---,0.20,VWS V14.01,2013-01-15 02:09:00,
2013-01-14 21:14:00,44.1,38.3,30.09,North,0,0.0,0.0,80,0.04,,---,0.20,VWS V14.01,2013-01-15 02:14:00,
2013-01-14 21:19:00,43.7,38.0,30.09,North,0,0.0,0.0,80,0.04,,---,0.20,VWS V14.01,2013-01-15 02:19:00,
2013-01-14 21:24:00,43.7,38.0,30.09,North,0,0.0,0.0,80,0.04,,---,0.20,VWS V14.01,2013-01-15 02:24:00,
2013-01-14 21:29:00,43.5,37.8,30.12,North,0,0.0,0.0,80,0.04,,---,0.20,VWS V14.01,2013-01-15 02:29:00,
2013-01-14 21:34:00,43.2,37.4,30.12,NE,53,0.0,0.0,80,0.04,,---,0.20,VWS V14.01,2013-01-15 02:34:00,
2013-01-14 21:39:00,43.0,37.2,30.12,NE,53,0.0,0.0,80,0.04,,---,0.20,VWS V14.01,2013-01-15 02:39:00,
2013-01-14 21:44:00,42.6,37.2,30.12,NE,53,0.0,0.0,81,0.04,,---,0.20,VWS V14.01,2013-01-15 02:44:00,
2013-01-14 21:49:00,42.4,37.0,30.12,NE,53,0.0,0.0,81,0.04,,---,0.20,VWS V14.01,2013-01-15 02:49:00,
2013-01-14 21:54:00,42.1,36.7,30.12,NE,53,0.0,0.0,81,0.04,,---,0.20,VWS V14.01,2013-01-15 02:54:00,
2013-01-14 21:59:00,41.9,36.5,30.15,SSE,159,0.0,0.0,81,0.04,,---,0.20,VWS V14.01,2013-01-15 02:59:00,
2013-01-14 22:04:00,41.7,36.3,30.15,SSE,159,0.0,0.0,81,0.04,,---,0.20,VWS V14.01,2013-01-15 03:04:00,
2013-01-14 22:09:00,41.4,36.0,30.15,East,80,0.0,3.1,81,0.00,,---,0.20,VWS V14.01,2013-01-15 03:09:00,
2013-01-14 22:14:00,41.2,35.8,30.15,East,84,0.0,0.0,81,0.00,,---,0.20,VWS V14.01,2013-01-15 03:14:00,
2013-01-14 22:19:00,41.0,35.9,30.15,East,84,0.0,0.0,82,0.00,,---,0.20,VWS V14.01,2013-01-15 03:19:00,
2013-01-14 22:24:00,40.8,35.8,30.15,ENE,70,2.7,2.7,82,0.04,,---,0.24,VWS V14.01,2013-01-15 03:24:00,
2013-01-14 22:30:00,40.6,35.6,30.15,ENE,72,0.0,0.0,82,0.04,,---,0.24,VWS V14.01,2013-01-15 03:30:00,
2013-01-14 22:35:00,40.6,35.6,30.15,ENE,72,0.0,0.0,82,0.04,,---,0.24,VWS V14.01,2013-01-15 03:35:00,
2013-01-14 22:40:00,40.5,35.4,30.15,ENE,72,0.0,0.0,82,0.04,,---,0.24,VWS V14.01,2013-01-15 03:40:00,
2013-01-14 22:45:00,40.5,35.4,30.15,ENE,72,0.0,0.0,82,0.04,,---,0.24,VWS V14.01,2013-01-15 03:45:00,
2013-01-14 22:50:00,40.3,35.2,30.15,ENE,72,0.0,0.0,82,0.04,,---,0.24,VWS V14.01,2013-01-15 03:50:00,
2013-01-14 22:55:00,40.3,35.5,30.12,ENE,72,0.0,0.0,83,0.04,,---,0.24,VWS V14.01,2013-01-15 03:55:00,
2013-01-14 23:00:00,40.3,35.5,30.12,ENE,72,0.0,0.0,83,0.04,,---,0.24,VWS V14.01,2013-01-15 04:00:00,
2013-01-14 23:05:00,40.3,35.5,30.12,ENE,72,0.0,0.0,83,0.04,,---,0.24,VWS V14.01,2013-01-15 04:05:00,
2013-01-14 23:10:00,40.3,35.5,30.12,ENE,72,0.0,0.0,83,0.04,,---,0.24,VWS V14.01,2013-01-15 04:10:00,
2013-01-14 23:15:00,40.3,35.8,30.12,ENE,72,3.1,3.1,84,0.04,,---,0.24,VWS V14.01,2013-01-15 04:15:00,
2013-01-14 23:20:00,40.3,35.8,30.12,West,262,0.0,0.0,84,0.08,,---,0.28,VWS V14.01,2013-01-15 04:20:00,
2013-01-14 23:25:00,40.3,36.1,30.12,West,262,0.0,0.0,85,0.04,,---,0.28,VWS V14.01,2013-01-15 04:25:00,
2013-01-14 23:30:00,40.3,36.1,30.09,West,262,0.0,0.0,85,0.04,,---,0.28,VWS V14.01,2013-01-15 04:30:00,
2013-01-14 23:35:00,40.5,36.3,30.09,West,262,0.0,0.0,85,0.04,,---,0.28,VWS V14.01,2013-01-15 04:35:00,
2013-01-14 23:40:00,40.5,36.6,30.09,West,262,0.0,0.0,86,0.04,,---,0.28,VWS V14.01,2013-01-15 04:40:00,
2013-01-14 23:45:00,40.5,36.6,30.09,West,262,0.0,0.0,86,0.04,,---,0.28,VWS V14.01,2013-01-15 04:45:00,
2013-01-14 23:50:00,40.5,36.6,30.09,West,262,0.0,0.0,86,0.04,,---,0.28,VWS V14.01,2013-01-15 04:50:00,
2013-01-14 23:55:00,40.5,36.6,30.09,West,262,0.0,0.0,86,0.04,,---,0.28,VWS V14.01,2013-01-15 04:55:00,